^^
Station Historical Data
Daily Summary for January 20, 2017 Units:  English    Metric   Both
« Previous Day
Next Day »
Daily Weekly Monthly Yearly Custom
  High: Low: Average:
Temperature: 38.2 °F 31.8 °F 37 °F
Dew Point: 36.6 °F 30.0 °F 34.8 °F
Humidity: 94 % 88 % 92 %
Wind Speed: 2.2 mph 0.0 mph 0.1 mph
Wind Gust: 3.5 mph - -
Wind:- - West
Pressure: 30.03 in 29.92 in -
Precipitation: 0.35 in    
Historical Graphs
 
 
Tabular Data for January 20, 2017
Time Temperature Dew Point Pressure Wind Wind Speed Wind Gust Humidity Rainfall Rate (Hourly) solar Conditions
08:50 31.8 °F 30.0 °F 30.01 in Calm     93 % 0.00 in 90.0 W/m2 SCT
08:58 31.8 °F 30.0 °F 30.01 in Calm     93 % 0.00 in 102.0 W/m2 SCT
09:03 32.1 °F 30.3 °F 30.01 in Calm     93 % 0.00 in 111.0 W/m2 SCT
09:08 32.6 °F 30.8 °F 30.01 in Calm     93 % 0.00 in 118.0 W/m2 SCT
09:13 32.7 °F 30.9 °F 30.02 in Calm     93 % 0.00 in 130.0 W/m2 SCT
09:18 32.8 °F 31.0 °F 30.02 in Calm     93 % 0.00 in 139.0 W/m2 SCT
09:23 33.0 °F 31.2 °F 30.02 in NW 0.3 mph 1.2 mph 93 % 0.00 in 151.0 W/m2 FEW
09:28 33.4 °F 31.6 °F 30.02 in NW 2.2 mph 3.5 mph 93 % 0.00 in 141.0 W/m2 SCT
09:33 33.5 °F 31.4 °F 30.02 in NW 0.8 mph 3.5 mph 92 % 0.00 in 151.0 W/m2 SCT
09:38 33.8 °F 32.0 °F 30.02 in NW 1.5 mph 3.5 mph 93 % 0.00 in 151.0 W/m2 SCT
09:44 34.0 °F 31.9 °F 30.03 in NW 0.7 mph 2.3 mph 92 % 0.00 in 148.0 W/m2 SCT
09:49 34.0 °F 31.9 °F 30.03 in Calm     92 % 0.00 in 141.0 W/m2 SCT
09:54 34.3 °F 32.5 °F 30.02 in Calm     93 % 0.00 in 135.0 W/m2 SCT
09:59 34.5 °F 32.4 °F 30.02 in NW 2.1 mph 3.5 mph 92 % 0.00 in 134.0 W/m2 BKN
10:04 34.7 °F 32.6 °F 30.02 in NW 1.0 mph 2.3 mph 92 % 0.00 in 130.0 W/m2 BKN
10:09 35.0 °F 32.9 °F 30.02 in Calm     92 % 0.00 in 120.0 W/m2 BKN
10:14 35.2 °F 33.1 °F 30.02 in Calm     92 % 0.00 in 107.0 W/m2 BKN
10:19 35.2 °F 33.1 °F 30.02 in Calm     92 % 0.00 in 97.0 W/m2 BKN
10:29 35.6 °F 33.5 °F 30.02 in Calm     92 % 0.00 in 91.0 W/m2 BKN
10:44 36.0 °F 33.6 °F 30.02 in Calm     91 % 0.00 in 88.0 W/m2 OVC
10:49 36.1 °F 33.5 °F 30.02 in Calm     90 % 0.00 in 91.0 W/m2 OVC
10:54 36.3 °F 33.6 °F 30.02 in Calm     90 % 0.00 in 97.0 W/m2 OVC
10:59 36.5 °F 33.8 °F 30.02 in Calm     90 % 0.00 in 107.0 W/m2 BKN
11:04 36.6 °F 33.7 °F 30.01 in Calm     89 % 0.00 in 114.0 W/m2 BKN
11:09 36.8 °F 33.9 °F 30.01 in Calm     89 % 0.00 in 111.0 W/m2 BKN
11:14 36.9 °F 34.0 °F 30.01 in Calm     89 % 0.00 in 91.0 W/m2 OVC
11:19 36.9 °F 34.0 °F 30.01 in Calm     89 % 0.00 in 77.0 W/m2 OVC
11:24 36.8 °F 33.9 °F 30.00 in Calm     89 % 0.00 in 67.0 W/m2 OVC
11:29 36.9 °F 34.0 °F 30.00 in Calm     89 % 0.00 in 53.0 W/m2 OVC
11:34 37.0 °F 33.8 °F 30.00 in Calm     88 % 0.00 in 53.0 W/m2 OVC
11:44 37.3 °F 34.4 °F 29.99 in NW 0.9 mph 2.3 mph 89 % 0.01 in 63.0 W/m2 RA
11:49 37.1 °F 33.9 °F 29.99 in NW 0.6 mph 1.2 mph 88 % 0.01 in 49.0 W/m2 OVC
11:54 37.1 °F 33.9 °F 29.98 in Calm     88 % 0.03 in 62.0 W/m2 RA
11:59 37.1 °F 34.2 °F 29.98 in Calm     89 % 0.04 in 58.0 W/m2 RA
12:04 37.1 °F 34.2 °F 29.98 in Calm     89 % 0.04 in 67.0 W/m2 RA
12:09 37.2 °F 34.3 °F 29.97 in Calm     89 % 0.05 in 63.0 W/m2 RA
12:14 37.2 °F 34.3 °F 29.97 in Calm     89 % 0.05 in 65.0 W/m2 RA
12:19 37.4 °F 34.7 °F 29.97 in Calm     90 % 0.06 in 62.0 W/m2 RA
12:24 37.3 °F 34.6 °F 29.96 in NW 0.5 mph 1.2 mph 90 % 0.06 in 53.0 W/m2 RA
12:29 37.3 °F 34.6 °F 29.96 in Calm     90 % 0.07 in 49.0 W/m2 RA
12:34 37.4 °F 34.7 °F 29.96 in Calm     90 % 0.07 in 46.0 W/m2 RA
12:39 37.4 °F 34.7 °F 29.96 in Calm     90 % 0.07 in 40.0 W/m2 RA
12:44 37.3 °F 34.6 °F 29.95 in Calm     90 % 0.08 in 40.0 W/m2 RA
12:49 37.3 °F 34.6 °F 29.95 in Calm     90 % 0.09 in 40.0 W/m2 RA
12:54 37.4 °F 35.0 °F 29.95 in Calm     91 % 0.08 in 37.0 W/m2 RA
12:59 37.5 °F 35.1 °F 29.95 in Calm     91 % 0.08 in 40.0 W/m2 RA
13:04 37.4 °F 35.0 °F 29.95 in Calm     91 % 0.09 in 46.0 W/m2 RA
13:09 37.4 °F 35.0 °F 29.95 in Calm     91 % 0.08 in 42.0 W/m2 RA
13:15 37.4 °F 35.0 °F 29.94 in Calm     91 % 0.09 in 47.0 W/m2 RA
13:19 37.5 °F 35.1 °F 29.94 in Calm   1.2 mph 91 % 0.09 in 40.0 W/m2 RA
13:24 37.5 °F 35.1 °F 29.94 in Calm     91 % 0.10 in 35.0 W/m2 RA
13:29 37.4 °F 35.0 °F 29.94 in Calm     91 % 0.10 in 35.0 W/m2 RA
13:34 37.3 °F 34.9 °F 29.95 in Calm     91 % 0.12 in 35.0 W/m2 RA
13:40 37.3 °F 34.9 °F 29.95 in Calm     91 % 0.12 in 44.0 W/m2 RA
13:45 37.4 °F 35.0 °F 29.95 in Calm     91 % 0.10 in 46.0 W/m2 RA
13:50 37.4 °F 35.0 °F 29.95 in Calm     91 % 0.10 in 35.0 W/m2 RA
13:55 37.4 °F 35.3 °F 29.95 in Calm     92 % 0.00 in 30.0 W/m2 RA
14:00 37.5 °F 35.4 °F 29.95 in Calm     92 % 0.10 in 33.0 W/m2 RA
14:05 37.5 °F 35.4 °F 29.95 in Calm     92 % 0.00 in 30.0 W/m2 RA
14:10 37.5 °F 35.4 °F 29.95 in Calm     92 % 0.10 in 30.0 W/m2 RA
14:15 37.6 °F 35.5 °F 29.94 in Calm     92 % 0.09 in 25.0 W/m2 RA
14:20 37.5 °F 35.4 °F 29.94 in Calm     92 % 0.01 in 21.0 W/m2 RA
14:25 37.5 °F 35.4 °F 29.94 in Calm     92 % 0.00 in 21.0 W/m2 RA
14:30 37.6 °F 35.5 °F 29.94 in Calm     92 % 0.08 in 25.0 W/m2 RA
14:35 37.6 °F 35.5 °F 29.94 in Calm     92 % 0.01 in 30.0 W/m2 RA
14:40 37.6 °F 35.5 °F 29.94 in Calm     92 % 0.07 in 28.0 W/m2 RA
14:45 37.6 °F 35.5 °F 29.94 in Calm     92 % 0.06 in 25.0 W/m2 RA
14:50 37.6 °F 35.5 °F 29.94 in Calm     92 % 0.01 in 23.0 W/m2 RA
14:55 37.6 °F 35.5 °F 29.94 in Calm     92 % 0.00 in 21.0 W/m2 RA
15:00 37.6 °F 35.5 °F 29.94 in Calm     92 % 0.05 in 21.0 W/m2 OVC
15:05 37.7 °F 35.6 °F 29.94 in Calm     92 % 0.01 in 25.0 W/m2 RA
15:10 37.7 °F 35.6 °F 29.93 in Calm     92 % 0.00 in 28.0 W/m2 RA
15:15 37.7 °F 35.6 °F 29.93 in Calm     92 % 0.05 in 28.0 W/m2 OVC
15:20 37.7 °F 35.6 °F 29.93 in Calm   3.0 mph 92 % 0.00 in 26.0 W/m2 RA
15:25 37.7 °F 35.6 °F 29.93 in NNW 1.0 mph 3.0 mph 92 % 0.00 in 25.0 W/m2 RA
15:30 37.7 °F 35.6 °F 29.93 in East 0.6 mph 2.3 mph 92 % 0.04 in 21.0 W/m2 OVC
15:35 37.7 °F 35.6 °F 29.93 in Calm     92 % 0.05 in 18.0 W/m2 RA
15:40 37.7 °F 35.9 °F 29.93 in East 1.0 mph 3.0 mph 93 % 0.00 in 23.0 W/m2 RA
15:44 37.8 °F 36.0 °F 29.93 in ESE 1.0 mph 3.0 mph 93 % 0.01 in 21.0 W/m2 RA
15:49 37.8 °F 36.0 °F 29.93 in Calm   3.0 mph 93 % 0.01 in 18.0 W/m2 RA
15:54 37.8 °F 36.0 °F 29.93 in Calm   3.0 mph 93 % 0.01 in 16.0 W/m2 RA
15:59 37.8 °F 36.0 °F 29.92 in Calm   1.0 mph 93 % 0.01 in 12.0 W/m2 RA
16:04 37.9 °F 36.1 °F 29.92 in Calm   1.0 mph 93 % 0.00 in 11.0 W/m2 OVC
16:09 37.9 °F 36.1 °F 29.92 in Calm   2.0 mph 93 % 0.00 in 9.0 W/m2 OVC
16:14 37.8 °F 36.0 °F 29.92 in Calm   2.0 mph 93 % 0.00 in 9.0 W/m2 OVC
16:19 37.9 °F 36.1 °F 29.92 in Calm     93 % 0.00 in 5.0 W/m2 OVC
16:24 37.9 °F 36.1 °F 29.92 in Calm     93 % 0.00 in 0.0 W/m2 OVC
16:29 37.9 °F 36.1 °F 29.92 in Calm     93 % 0.00 in 0.0 W/m2 OVC
16:34 37.9 °F 36.1 °F 29.92 in Calm     93 % 0.00 in 0.0 W/m2 OVC
16:44 37.9 °F 36.1 °F 29.92 in Calm     93 % 0.02 in 0.0 W/m2
16:49 37.9 °F 36.1 °F 29.92 in Calm     93 % 0.01 in 0.0 W/m2
16:54 37.9 °F 36.1 °F 29.92 in Calm     93 % 0.01 in 0.0 W/m2 OVC
16:59 37.9 °F 36.1 °F 29.92 in Calm     93 % 0.00 in 0.0 W/m2 OVC
17:04 37.9 °F 36.1 °F 29.92 in Calm     93 % 0.00 in 0.0 W/m2 OVC
17:09 37.9 °F 36.1 °F 29.92 in Calm     93 % 0.00 in 0.0 W/m2 OVC
17:15 37.9 °F 36.1 °F 29.92 in Calm     93 % 0.00 in 0.0 W/m2 OVC
17:20 37.9 °F 36.1 °F 29.92 in Calm     93 % 0.00 in 0.0 W/m2 OVC
17:25 38.0 °F 36.2 °F 29.92 in Calm     93 % 0.00 in 0.0 W/m2 OVC
17:30 38.0 °F 36.2 °F 29.92 in Calm     93 % 0.00 in 0.0 W/m2 OVC
17:35 38.0 °F 36.2 °F 29.92 in Calm     93 % 0.00 in 0.0 W/m2 OVC
17:40 38.0 °F 36.2 °F 29.92 in Calm     93 % 0.00 in 0.0 W/m2 CLR
17:45 38.0 °F 36.2 °F 29.92 in Calm     93 % 0.00 in 0.0 W/m2 CLR
17:50 38.0 °F 36.2 °F 29.92 in Calm     93 % 0.00 in 0.0 W/m2 CLR
17:55 38.0 °F 36.2 °F 29.92 in Calm     93 % 0.00 in 0.0 W/m2 CLR
18:00 38.0 °F 36.2 °F 29.92 in Calm     93 % 0.00 in 0.0 W/m2 CLR
18:05 38.0 °F 36.2 °F 29.92 in Calm     93 % 0.00 in 0.0 W/m2 CLR
18:10 38.0 °F 36.2 °F 29.92 in Calm     93 % 0.00 in 0.0 W/m2 CLR
18:15 38.1 °F 36.3 °F 29.92 in Calm     93 % 0.00 in 0.0 W/m2 CLR
18:20 38.1 °F 36.3 °F 29.92 in Calm     93 % 0.00 in 0.0 W/m2 CLR
18:25 38.1 °F 36.3 °F 29.93 in Calm     93 % 0.00 in 0.0 W/m2 CLR
18:30 38.1 °F 36.3 °F 29.92 in Calm     93 % 0.00 in 0.0 W/m2 CLR
18:35 38.1 °F 36.3 °F 29.93 in Calm     93 % 0.01 in 0.0 W/m2 RA
18:40 38.1 °F 36.3 °F 29.93 in Calm     93 % 0.01 in 0.0 W/m2 RA
18:45 38.1 °F 36.3 °F 29.93 in Calm     93 % 0.01 in 0.0 W/m2
18:50 38.1 °F 36.3 °F 29.93 in Calm     93 % 0.01 in 0.0 W/m2
18:55 38.1 °F 36.3 °F 29.93 in Calm     93 % 0.01 in 0.0 W/m2
19:00 38.2 °F 36.6 °F 29.93 in Calm     94 % 0.01 in 0.0 W/m2
19:05 38.2 °F 36.6 °F 29.93 in Calm     94 % 0.01 in 0.0 W/m2
19:10 38.2 °F 36.6 °F 29.93 in Calm     94 % 0.01 in 0.0 W/m2
Air Products Campus Weather
Compliments of Weather Underground - 2.5 mb